Flight Track Log - Related Links

Times and Time Zones

All times are in EDT time to prevent confusion due to time zone crossing. See the N449ND flight status page for this flight to view local times or setup timezone preferences in your user account.

Time Position Orientation Groundspeed Altitude Reporting Facility
EDT Latitude Longitude Course Direction KTS MPH feet Rate Location/Type
Fri 09:59:14 PM 27.4339 -80.3781 152° Southeast 72 83 2,100  Level Miami Center
Fri 10:00:15 PM 27.4222 -80.4000 239° Southwest 81 93 2,700 295 Climbing Miami Center
Fri 10:02:17 PM 27.4614 -80.4258 330° Northwest 99 114 3,000 98 Climbing Miami Center
Fri 10:03:18 PM 27.4886 -80.4297 353° North 100 115 3,000  Level Miami Center
Fri 10:04:00 PM 27.4975 -80.3726 152° Southeast  Level Estimated
Fri 10:04:19 PM 27.5183 -80.4381 346° North 103 119 3,000  Level Miami Center
Fri 10:05:20 PM 27.5456 -80.4453 347° North 104 120 3,000  Level Miami Center
Fri 10:06:21 PM 27.5717 -80.4578 337° Northwest 104 120 3,000 -49 Level Miami Center
Fri 10:07:22 PM 27.5611 -80.4872 248° West 100 115 2,900  Descending Miami Center
Fri 10:08:23 PM 27.5628 -80.5158 274° West 98 113 3,000 49 Climbing Miami Center
Fri 10:09:24 PM 27.5736 -80.5450 293° West 98 113 3,000  Level Miami Center
Fri 10:10:25 PM 27.5864 -80.5731 297° West 98 113 3,000  Level Miami Center
Fri 10:11:26 PM 27.6039 -80.5950 312° West 98 113 3,000  Level Miami Center
Fri 10:12:27 PM 27.6258 -80.6158 320° Northwest 99 114 3,000  Level Miami Center
Fri 10:13:28 PM 27.6547 -80.6250 344° North 102 117 3,000 -48 Level Miami Center
Fri 10:14:32 PM 27.6839 -80.6250 360° North 106 122 2,900  Descending Miami Center
Fri 10:15:43 PM 27.7178 -80.6172 11° North 106 122 3,000 -182 Climbing Miami Center
Fri 10:16:44 PM 27.7158 -80.5914 95° East 92 106 2,500 -677 Descending Miami Center
Fri 10:17:47 PM 27.7047 -80.5656 116° Southeast 88 101 1,600 -634 Descending Miami Center
Fri 10:18:47 PM 27.6967 -80.5425 112° Southeast 85 98 1,200 -198 Descending Miami Center
Fri 10:19:48 PM 27.6889 -80.5172 109° East 85 98 1,200 -50 Level Miami Center
Fri 10:20:48 PM 27.6794 -80.4914 112° Southeast 85 98 1,100 -149 Descending Miami Center
Fri 10:21:49 PM 27.6756 -80.4703 102° East 76 87 900 -347 Descending Miami Center
Fri 10:22:49 PM 27.6644 -80.4500 122° Southeast 75 86 400 -242 Descending Miami Center
Fri 10:23:53 PM 27.6569 -80.4264 110° East 75 86 400 240 Level Miami Center
Fri 10:24:54 PM 27.6603 -80.4033 81° East 95 109 900 541 Climbing Miami Center
Fri 10:25:55 PM 27.6894 -80.4108 347° North 106 122 1,500 541 Climbing Miami Center
Fri 10:26:56 PM 27.7156 -80.4197 343° North 105 121 2,000 246 Climbing Miami Center
Fri 10:27:57 PM 27.7325 -80.4417 311° West 100 115 2,000  Level Miami Center
Fri 10:28:58 PM 27.7144 -80.4625 226° Southwest 88 101 2,000  Level Miami Center
Fri 10:29:58 PM 27.6953 -80.4858 227° Southwest 101 116 2,000  Level Miami Center
Fri 10:30:59 PM 27.6772 -80.5086 228° Southwest 100 115 2,000  Level Miami Center
Fri 10:32:01 PM 27.6578 -80.5325 227° Southwest 98 113 2,000  Level Miami Center
Fri 10:33:01 PM 27.6394 -80.5539 226° Southwest 98 113 2,000  Level Miami Center
Fri 10:34:01 PM 27.6200 -80.5772 227° Southwest 98 113 2,000 -50 Level Miami Center
Fri 10:35:01 PM 27.6028 -80.5975 226° Southwest 97 112 1,900  Descending Miami Center
Fri 10:36:04 PM 27.5822 -80.6189 223° Southwest 95 109 2,000 48 Climbing Miami Center
Fri 10:37:05 PM 27.5739 -80.6456 251° West 105 121 2,000  Level Miami Center
Fri 10:38:06 PM 27.5925 -80.6358 25° Northeast 100 115 2,000  Level Miami Center
Fri 10:39:07 PM 27.5983 -80.6072 77° East 90 104 2,000  Level Miami Center
Fri 10:40:08 PM 27.5869 -80.5897 126° Southeast 86 99 2,000  Level Miami Center
Fri 10:41:09 PM 27.5817 -80.6189 258° West 108 124 2,000  Level Miami Center
Fri 10:42:08 PM 27.5831 -80.6492 273° West 98 113 2,000  Level Miami Center
Fri 10:43:08 PM 27.5964 -80.6369 39° Northeast 96 110 2,000 -49 Level Miami Center
Fri 10:44:10 PM 27.5992 -80.6083 84° East 88 101 1,900  Descending Miami Center
Fri 10:45:11 PM 27.5933 -80.5858 106° East 80 92 2,000 50 Climbing Miami Center
Fri 10:46:11 PM 27.5847 -80.6100 248° West 96 110 2,000 -50 Level Miami Center
Fri 10:47:12 PM 27.5933 -80.6367 290° West 111 128 1,900  Descending Miami Center
Fri 10:48:15 PM 27.5981 -80.6131 77° East 86 99 2,000 49 Climbing Miami Center
Fri 10:49:15 PM 27.5933 -80.5908 103° East 85 98 2,000 -50 Level Miami Center
Fri 10:50:16 PM 27.5867 -80.6183 255° West 107 123 1,900  Descending Miami Center
Fri 10:51:16 PM 27.5872 -80.6494 271° West 103 119 2,000 50 Climbing Miami Center
Fri 10:52:16 PM 27.5986 -80.6333 51° Northeast 97 112 2,000 50 Level Miami Center
Fri 10:53:17 PM 27.5819 -80.6217 148° Southeast 85 98 2,100  Climbing Miami Center
Fri 10:54:18 PM 27.5586 -80.6147 165° South 83 96 2,000 -49 Descending Miami Center
Fri 10:55:19 PM 27.5375 -80.6069 162° South 83 96 2,000  Level Miami Center
Fri 10:56:19 PM 27.5147 -80.5969 159° South 83 96 2,000  Level Miami Center
Fri 10:57:20 PM 27.4922 -80.5947 175° South 84 97 2,000 -49 Level Miami Center
Fri 10:58:21 PM 27.5000 -80.6161 292° West 113 130 1,900  Descending Miami Center
Fri 10:59:22 PM 27.5286 -80.6186 356° North 110 127 2,000 50 Climbing Miami Center
Fri 11:00:22 PM 27.5378 -80.6019 58° Northeast 96 110 2,000  Level Miami Center
Fri 11:01:23 PM 27.5139 -80.5972 170° South 87 100 2,000 49 Level Miami Center
Fri 11:02:24 PM 27.4978 -80.5828 142° Southeast 93 107 2,100 -50 Climbing Miami Center
Fri 11:03:24 PM 27.5014 -80.5542 82° East 88 101 1,900 -99 Descending Miami Center
Fri 11:04:25 PM 27.5000 -80.5275 93° East 89 102 1,900 49 Level Miami Center
Fri 11:05:26 PM 27.4992 -80.4981 92° East 89 102 2,000 -50 Climbing Miami Center
Fri 11:06:26 PM 27.4981 -80.4708 93° East 89 102 1,800 -397 Descending Miami Center
Fri 11:07:27 PM 27.4981 -80.4453 90° East 82 94 1,200 -496 Descending Miami Center
Fri 11:08:27 PM 27.4975 -80.4208 91° East 82 94 800 -347 Descending Miami Center
Fri 11:09:28 PM 27.4972 -80.3950 91° East 81 93 500 -98 Descending Miami Center
Fri 11:10:29 PM 27.4981 -80.3689 88° East 81 93 600 347 Climbing Miami Center
Fri 11:11:29 PM 27.4939 -80.3447 101° East 83 96 1,200 545 Climbing Miami Center
Fri 11:12:30 PM 27.4900 -80.3200 100° East 82 94 1,700 496 Climbing Miami Center
Fri 11:13:30 PM 27.4883 -80.2922 94° East 85 98 2,200 545 Climbing Miami Center
Fri 11:14:31 PM 27.4736 -80.2811 146° Southeast 81 93 2,800 443 Climbing Miami Center
Fri 11:15:32 PM 27.4647 -80.3050 247° West 85 98 3,100 149 Climbing Miami Center
Fri 11:16:32 PM 27.4533 -80.3339 246° West 93 107 3,100  Level Miami Center
Fri 11:17:33 PM 27.4444 -80.3592 248° West 92 106 3,100  Level Miami Center
Fri 11:18:33 PM 27.4333 -80.3858 245° Southwest 92 106 3,100  Level Miami Center
Fri 11:19:34 PM 27.4244 -80.4111 248° West 92 106 3,100  Level Miami Center
Fri 11:20:34 PM 27.4139 -80.4358 244° Southwest 91 105 3,100  Level Miami Center
Fri 11:21:33 PM 27.4142 -80.4686 271° West 91 105 3,100  Level Miami Center
Fri 11:22:35 PM 27.4164 -80.4964 275° West 92 106 3,100 -49 Level Miami Center
Fri 11:23:36 PM 27.4225 -80.5256 283° West 94 108 3,000 -344 Descending Miami Center
Fri 11:24:37 PM 27.4478 -80.5392 334° Northwest 102 117 2,400 -450 Descending Miami Center
Fri 11:25:36 PM 27.4761 -80.5547 334° Northwest 107 123 2,100 -151 Descending Miami Center
Fri 11:26:36 PM 27.4967 -80.5383 35° Northeast 101 116 2,100 -98 Level Miami Center
Fri 11:27:38 PM 27.4986 -80.5122 85° East 85 98 1,900 -194 Descending Miami Center

Login

Don't have an account? Register now (free) for customized features, flight alerts, and more!